Daihatsumaru — JD2764 — position and weather

sailwx.info

Track history (hours):
 
Tides and Currents Weather Stations Pressure Air Temp Water Temp Dewpoint Dewpoint Depression Visibility Wind Speed Wind Dir Waves Ship Positions

Daihatsumaru

Last reported at 2014-Oct-02 04:30 UTC. Time now 2014-Oct-02 16:33 UTC.
Position N 34°37' E 135°01'.

Length 106 m; draft 4.5 m.

Type: Cargo ship. MMSI: 431000701.

Date/timePositionNaut miles runAvg speedWind from/ knotsBaromVisibWave heightAir tempDewpointWater temp
2014-Oct-02 04:30N 34°37' E 135°01'1414.8
2014-Oct-02 03:33N 34°39' E 135°18'5 2.4
2014-Oct-02 01:27N 34°41' E 135°23'0 0.0
2014-Oct-02 00:09N 34°41' E 135°23'0 0.0
2014-Oct-01 23:27N 34°41' E 135°23'2 1.9
2014-Oct-01 22:33N 34°40' E 135°22'1 0.7
2014-Oct-01 21:16N 34°40' E 135°21'0 0.0
2014-Oct-01 20:28N 34°40' E 135°21'2 2.6
2014-Oct-01 19:33N 34°39' E 135°18'1313.0
2014-Oct-01 18:33N 34°36' E 135°03'12112.8
2014-Oct-01 09:09N 33°58' E 132°44'116 4.0
2014-Sep-30 04:22N 34°37' E 134°56'1215.3
2014-Sep-30 03:34N 34°37' E 135°11'1110.9
2014-Sep-30 02:33N 34°41' E 135°23'0 0.0
2014-Sep-30 01:24N 34°41' E 135°23'0 0.0
2014-Sep-30 00:30N 34°41' E 135°23'0 0.0
2014-Sep-29 23:24N 34°41' E 135°23'2 2.5
2014-Sep-29 22:33N 34°40' E 135°21'1 0.6
2014-Sep-29 21:33N 34°40' E 135°21'0 0.0
2014-Sep-29 20:33N 34°40' E 135°21'3 2.5
2014-Sep-29 19:33N 34°39' E 135°18'1413.7
2014-Sep-29 18:33N 34°36' E 135°02'12113.2
2014-Sep-29 09:22N 33°57' E 132°43'2 0.0
2014-Sep-27 17:13N 33°57' E 132°41'117 9.9
2014-Sep-27 05:24N 34°36' E 134°54'1112.9
2014-Sep-27 04:33N 34°36' E 135°08'1414.0
2014-Sep-27 03:34N 34°41' E 135°23'0 0.1
2014-Sep-27 02:34N 34°41' E 135°23'0 0.0
2014-Sep-27 01:32N 34°41' E 135°23'0 0.0
2014-Sep-27 00:20N 34°41' E 135°23'0 0.1
2014-Sep-26 23:32N 34°41' E 135°23'2 2.0
2014-Sep-26 22:34N 34°40' E 135°21'1 0.8
2014-Sep-26 21:32N 34°40' E 135°20'0 0.0
2014-Sep-26 20:32N 34°40' E 135°20'0 0.0
2014-Sep-26 19:33N 34°40' E 135°20'1110.6
2014-Sep-26 18:33N 34°34' E 135°10'1615.6
2014-Sep-26 17:33N 34°33' E 134°50'10913.5
2014-Sep-26 09:28N 33°60' E 132°45'4 0.2
2014-Sep-25 16:31N 33°57' E 132°41'12210.2
2014-Sep-25 04:31N 34°37' E 135°01'1313.5
2014-Sep-25 03:33N 34°37' E 135°17'7 6.8
2014-Sep-25 02:33N 34°41' E 135°23'0 0.0
2014-Sep-25 01:32N 34°41' E 135°23'0 0.0
2014-Sep-25 00:28N 34°41' E 135°23'0 0.0
2014-Sep-24 23:28N 34°41' E 135°23'3 3.3
2014-Sep-24 22:33N 34°40' E 135°20'0 0.2
2014-Sep-24 21:33N 34°40' E 135°20'0 0.0
2014-Sep-24 20:33N 34°40' E 135°20'0 0.0
2014-Sep-24 19:21N 34°40' E 135°20'0 0.1
2014-Sep-24 18:33N 34°40' E 135°20'1110.9
2014-Sep-24 17:33N 34°35' E 135°08'1716.4
2014-Sep-24 16:33N 34°33' E 134°48'11013.7
2014-Sep-24 08:33N 33°56' E 132°43'2 0.1
2014-Sep-23 15:34N 33°58' E 132°43'110 9.9
2014-Sep-23 04:29N 34°34' E 134°49'1112.3
2014-Sep-23 03:33N 34°37' E 135°02'1414.0
2014-Sep-23 02:33N 34°39' E 135°19'4 4.2
2014-Sep-23 01:32N 34°41' E 135°23'0 0.0
2014-Sep-23 00:33N 34°41' E 135°23'0 0.0
2014-Sep-22 23:33N 34°41' E 135°23'2 2.0
2014-Sep-22 22:33N 34°40' E 135°21'1 0.5
2014-Sep-22 21:29N 34°40' E 135°21'0 0.0
2014-Sep-22 20:29N 34°40' E 135°21'0 0.0
2014-Sep-22 19:29N 34°40' E 135°21'1 1.1
2014-Sep-22 18:33N 34°39' E 135°20'1414.1
2014-Sep-22 17:33N 34°35' E 135°03'11814.0
2014-Sep-22 09:08N 34°02' E 132°47'  
Track history (hours):
 
Tides and Currents Weather Stations Pressure Air Temp Water Temp Dewpoint Dewpoint Depression Visibility Wind Speed Wind Dir Waves Ship Positions

Daihatsumaru

Last reported at 2014-Oct-02 04:30 UTC. Time now 2014-Oct-02 16:33 UTC.
Position N 34°37' E 135°01'.

Length 106 m; draft 4.5 m.

Type: Cargo ship. MMSI: 431000701.

Date/timePositionNaut miles runAvg speedWind from/ knotsBaromVisibWave heightAir tempDewpointWater temp
2014-Oct-02 04:30N 34°37' E 135°01'1414.8
2014-Oct-02 03:33N 34°39' E 135°18'5 2.4
2014-Oct-02 01:27N 34°41' E 135°23'0 0.0
2014-Oct-02 00:09N 34°41' E 135°23'0 0.0
2014-Oct-01 23:27N 34°41' E 135°23'2 1.9
2014-Oct-01 22:33N 34°40' E 135°22'1 0.7
2014-Oct-01 21:16N 34°40' E 135°21'0 0.0
2014-Oct-01 20:28N 34°40' E 135°21'2 2.6
2014-Oct-01 19:33N 34°39' E 135°18'1313.0
2014-Oct-01 18:33N 34°36' E 135°03'12112.8
2014-Oct-01 09:09N 33°58' E 132°44'116 4.0
2014-Sep-30 04:22N 34°37' E 134°56'1215.3
2014-Sep-30 03:34N 34°37' E 135°11'1110.9
2014-Sep-30 02:33N 34°41' E 135°23'0 0.0
2014-Sep-30 01:24N 34°41' E 135°23'0 0.0
2014-Sep-30 00:30N 34°41' E 135°23'0 0.0
2014-Sep-29 23:24N 34°41' E 135°23'2 2.5
2014-Sep-29 22:33N 34°40' E 135°21'1 0.6
2014-Sep-29 21:33N 34°40' E 135°21'0 0.0
2014-Sep-29 20:33N 34°40' E 135°21'3 2.5
2014-Sep-29 19:33N 34°39' E 135°18'1413.7
2014-Sep-29 18:33N 34°36' E 135°02'12113.2
2014-Sep-29 09:22N 33°57' E 132°43'2 0.0
2014-Sep-27 17:13N 33°57' E 132°41'117 9.9
2014-Sep-27 05:24N 34°36' E 134°54'1112.9
2014-Sep-27 04:33N 34°36' E 135°08'1414.0
2014-Sep-27 03:34N 34°41' E 135°23'0 0.1
2014-Sep-27 02:34N 34°41' E 135°23'0 0.0
2014-Sep-27 01:32N 34°41' E 135°23'0 0.0
2014-Sep-27 00:20N 34°41' E 135°23'0 0.1
2014-Sep-26 23:32N 34°41' E 135°23'2 2.0
2014-Sep-26 22:34N 34°40' E 135°21'1 0.8
2014-Sep-26 21:32N 34°40' E 135°20'0 0.0
2014-Sep-26 20:32N 34°40' E 135°20'0 0.0
2014-Sep-26 19:33N 34°40' E 135°20'1110.6
2014-Sep-26 18:33N 34°34' E 135°10'1615.6
2014-Sep-26 17:33N 34°33' E 134°50'10913.5
2014-Sep-26 09:28N 33°60' E 132°45'4 0.2
2014-Sep-25 16:31N 33°57' E 132°41'12210.2
2014-Sep-25 04:31N 34°37' E 135°01'1313.5
2014-Sep-25 03:33N 34°37' E 135°17'7 6.8
2014-Sep-25 02:33N 34°41' E 135°23'0 0.0
2014-Sep-25 01:32N 34°41' E 135°23'0 0.0
2014-Sep-25 00:28N 34°41' E 135°23'0 0.0
2014-Sep-24 23:28N 34°41' E 135°23'3 3.3
2014-Sep-24 22:33N 34°40' E 135°20'0 0.2
2014-Sep-24 21:33N 34°40' E 135°20'0 0.0
2014-Sep-24 20:33N 34°40' E 135°20'0 0.0
2014-Sep-24 19:21N 34°40' E 135°20'0 0.1
2014-Sep-24 18:33N 34°40' E 135°20'1110.9
2014-Sep-24 17:33N 34°35' E 135°08'1716.4
2014-Sep-24 16:33N 34°33' E 134°48'11013.7
2014-Sep-24 08:33N 33°56' E 132°43'2 0.1
2014-Sep-23 15:34N 33°58' E 132°43'110 9.9
2014-Sep-23 04:29N 34°34' E 134°49'1112.3
2014-Sep-23 03:33N 34°37' E 135°02'1414.0
2014-Sep-23 02:33N 34°39' E 135°19'4 4.2
2014-Sep-23 01:32N 34°41' E 135°23'0 0.0
2014-Sep-23 00:33N 34°41' E 135°23'0 0.0
2014-Sep-22 23:33N 34°41' E 135°23'2 2.0
2014-Sep-22 22:33N 34°40' E 135°21'1 0.5
2014-Sep-22 21:29N 34°40' E 135°21'0 0.0
2014-Sep-22 20:29N 34°40' E 135°21'0 0.0
2014-Sep-22 19:29N 34°40' E 135°21'1 1.1
2014-Sep-22 18:33N 34°39' E 135°20'1414.1
2014-Sep-22 17:33N 34°35' E 135°03'11814.0
2014-Sep-22 09:08N 34°02' E 132°47'  

Dump ship's entire track history